sensor_id;sensor_type;location;lat;lon;timestamp;P1;durP1;ratioP1;P2;durP2;ratioP2
1082;SDS011;530;51.448;7.238;2022-12-18T00:03:48;5.23;;;3.93;;
1082;SDS011;530;51.448;7.238;2022-12-18T00:06:15;5.53;;;4.23;;
1082;SDS011;530;51.448;7.238;2022-12-18T00:08:41;10.30;;;4.10;;
1082;SDS011;530;51.448;7.238;2022-12-18T00:11:10;4.93;;;4.13;;
1082;SDS011;530;51.448;7.238;2022-12-18T00:13:37;6.70;;;4.80;;
1082;SDS011;530;51.448;7.238;2022-12-18T00:16:07;4.93;;;3.83;;
1082;SDS011;530;51.448;7.238;2022-12-18T00:18:35;5.93;;;4.47;;
1082;SDS011;530;51.448;7.238;2022-12-18T00:21:01;4.90;;;3.87;;
1082;SDS011;530;51.448;7.238;2022-12-18T00:23:29;3.83;;;3.47;;
1082;SDS011;530;51.448;7.238;2022-12-18T00:26:02;6.93;;;4.90;;
1082;SDS011;530;51.448;7.238;2022-12-18T00:28:32;6.20;;;4.70;;
1082;SDS011;530;51.448;7.238;2022-12-18T00:31:04;5.83;;;3.90;;
1082;SDS011;530;51.448;7.238;2022-12-18T00:33:32;5.80;;;4.50;;
1082;SDS011;530;51.448;7.238;2022-12-18T00:36:17;4.87;;;3.83;;
1082;SDS011;530;51.448;7.238;2022-12-18T00:38:47;5.57;;;3.87;;
1082;SDS011;530;51.448;7.238;2022-12-18T00:41:14;5.37;;;4.27;;
1082;SDS011;530;51.448;7.238;2022-12-18T00:44:03;5.77;;;3.93;;
1082;SDS011;530;51.448;7.238;2022-12-18T00:46:30;5.70;;;4.53;;
1082;SDS011;530;51.448;7.238;2022-12-18T00:48:56;6.20;;;3.87;;
1082;SDS011;530;51.448;7.238;2022-12-18T00:51:22;6.20;;;4.70;;
1082;SDS011;530;51.448;7.238;2022-12-18T00:53:47;7.73;;;5.00;;
1082;SDS011;530;51.448;7.238;2022-12-18T00:56:13;5.20;;;3.80;;
1082;SDS011;530;51.448;7.238;2022-12-18T00:58:39;8.70;;;3.77;;
1082;SDS011;530;51.448;7.238;2022-12-18T01:01:05;6.33;;;3.93;;
1082;SDS011;530;51.448;7.238;2022-12-18T01:03:30;5.67;;;4.03;;
1082;SDS011;530;51.448;7.238;2022-12-18T01:05:56;6.27;;;4.23;;
1082;SDS011;530;51.448;7.238;2022-12-18T01:08:22;7.10;;;4.60;;
1082;SDS011;530;51.448;7.238;2022-12-18T01:10:48;5.50;;;4.60;;
1082;SDS011;530;51.448;7.238;2022-12-18T01:13:14;7.87;;;4.80;;
1082;SDS011;530;51.448;7.238;2022-12-18T01:15:39;5.30;;;4.00;;
1082;SDS011;530;51.448;7.238;2022-12-18T01:18:06;9.53;;;4.40;;
1082;SDS011;530;51.448;7.238;2022-12-18T01:20:31;7.60;;;4.20;;
1082;SDS011;530;51.448;7.238;2022-12-18T01:22:57;4.37;;;3.77;;
1082;SDS011;530;51.448;7.238;2022-12-18T01:25:23;6.30;;;4.20;;
1082;SDS011;530;51.448;7.238;2022-12-18T01:27:49;6.17;;;4.30;;
1082;SDS011;530;51.448;7.238;2022-12-18T01:30:14;5.17;;;4.17;;
1082;SDS011;530;51.448;7.238;2022-12-18T01:32:40;8.50;;;4.43;;
1082;SDS011;530;51.448;7.238;2022-12-18T01:35:06;7.33;;;5.07;;
1082;SDS011;530;51.448;7.238;2022-12-18T01:37:32;4.80;;;4.13;;
1082;SDS011;530;51.448;7.238;2022-12-18T01:39:58;6.10;;;4.57;;
1082;SDS011;530;51.448;7.238;2022-12-18T01:42:23;5.97;;;4.30;;
1082;SDS011;530;51.448;7.238;2022-12-18T01:49:57;7.20;;;4.40;;
1082;SDS011;530;51.448;7.238;2022-12-18T01:52:27;6.43;;;4.90;;
1082;SDS011;530;51.448;7.238;2022-12-18T01:54:55;5.73;;;4.33;;
1082;SDS011;530;51.448;7.238;2022-12-18T01:57:22;5.47;;;4.23;;
1082;SDS011;530;51.448;7.238;2022-12-18T01:59:49;9.10;;;4.33;;
1082;SDS011;530;51.448;7.238;2022-12-18T02:02:18;5.30;;;3.97;;
1082;SDS011;530;51.448;7.238;2022-12-18T02:04:45;7.40;;;4.67;;
1082;SDS011;530;51.448;7.238;2022-12-18T02:09:49;5.20;;;3.73;;
1082;SDS011;530;51.448;7.238;2022-12-18T02:12:22;5.50;;;4.17;;
1082;SDS011;530;51.448;7.238;2022-12-18T02:17:31;5.33;;;3.80;;
1082;SDS011;530;51.448;7.238;2022-12-18T02:20:11;5.93;;;4.60;;
1082;SDS011;530;51.448;7.238;2022-12-18T02:26:05;5.73;;;4.47;;
1082;SDS011;530;51.448;7.238;2022-12-18T02:28:33;5.97;;;4.27;;
1082;SDS011;530;51.448;7.238;2022-12-18T02:31:03;6.07;;;4.53;;
1082;SDS011;530;51.448;7.238;2022-12-18T02:33:31;7.50;;;4.37;;
1082;SDS011;530;51.448;7.238;2022-12-18T02:36:00;6.10;;;4.03;;
1082;SDS011;530;51.448;7.238;2022-12-18T02:38:26;9.43;;;5.00;;
1082;SDS011;530;51.448;7.238;2022-12-18T02:40:54;7.17;;;4.47;;
1082;SDS011;530;51.448;7.238;2022-12-18T02:43:20;5.73;;;3.97;;
1082;SDS011;530;51.448;7.238;2022-12-18T02:46:32;5.37;;;4.13;;
1082;SDS011;530;51.448;7.238;2022-12-18T02:48:48;6.30;;;4.00;;
1082;SDS011;530;51.448;7.238;2022-12-18T02:51:17;4.43;;;3.80;;
1082;SDS011;530;51.448;7.238;2022-12-18T02:54:26;6.73;;;4.40;;
1082;SDS011;530;51.448;7.238;2022-12-18T02:56:58;6.43;;;4.57;;
1082;SDS011;530;51.448;7.238;2022-12-18T02:59:31;4.53;;;3.30;;
1082;SDS011;530;51.448;7.238;2022-12-18T03:04:56;6.37;;;4.50;;
1082;SDS011;530;51.448;7.238;2022-12-18T03:07:38;5.50;;;4.57;;
1082;SDS011;530;51.448;7.238;2022-12-18T03:10:11;5.20;;;3.80;;
1082;SDS011;530;51.448;7.238;2022-12-18T03:12:40;11.93;;;4.00;;
1082;SDS011;530;51.448;7.238;2022-12-18T03:15:13;5.00;;;4.03;;
1082;SDS011;530;51.448;7.238;2022-12-18T03:17:46;6.17;;;3.80;;
1082;SDS011;530;51.448;7.238;2022-12-18T03:20:18;5.00;;;4.40;;
1082;SDS011;530;51.448;7.238;2022-12-18T03:22:46;6.47;;;3.90;;
1082;SDS011;530;51.448;7.238;2022-12-18T03:25:17;5.27;;;4.07;;
1082;SDS011;530;51.448;7.238;2022-12-18T03:27:46;4.57;;;3.93;;
1082;SDS011;530;51.448;7.238;2022-12-18T03:30:14;4.30;;;3.90;;
1082;SDS011;530;51.448;7.238;2022-12-18T03:32:43;6.53;;;4.10;;
1082;SDS011;530;51.448;7.238;2022-12-18T03:35:17;5.13;;;4.27;;
1082;SDS011;530;51.448;7.238;2022-12-18T03:37:47;4.83;;;3.80;;
1082;SDS011;530;51.448;7.238;2022-12-18T03:40:13;5.87;;;4.50;;
1082;SDS011;530;51.448;7.238;2022-12-18T03:42:43;6.50;;;4.13;;
1082;SDS011;530;51.448;7.238;2022-12-18T03:45:19;5.07;;;3.80;;
1082;SDS011;530;51.448;7.238;2022-12-18T03:48:02;6.30;;;4.20;;
1082;SDS011;530;51.448;7.238;2022-12-18T03:56:06;5.43;;;4.00;;
1082;SDS011;530;51.448;7.238;2022-12-18T03:58:34;5.90;;;4.47;;
1082;SDS011;530;51.448;7.238;2022-12-18T04:01:03;6.30;;;4.30;;
1082;SDS011;530;51.448;7.238;2022-12-18T04:03:32;6.30;;;4.23;;
1082;SDS011;530;51.448;7.238;2022-12-18T04:06:00;5.27;;;3.93;;
1082;SDS011;530;51.448;7.238;2022-12-18T04:08:27;6.23;;;4.47;;
1082;SDS011;530;51.448;7.238;2022-12-18T04:10:54;5.93;;;4.20;;
1082;SDS011;530;51.448;7.238;2022-12-18T04:13:29;5.13;;;3.87;;
1082;SDS011;530;51.448;7.238;2022-12-18T04:15:59;6.43;;;4.13;;
1082;SDS011;530;51.448;7.238;2022-12-18T04:18:24;4.83;;;3.40;;
1082;SDS011;530;51.448;7.238;2022-12-18T04:20:50;5.33;;;4.30;;
1082;SDS011;530;51.448;7.238;2022-12-18T04:23:16;5.03;;;3.40;;
1082;SDS011;530;51.448;7.238;2022-12-18T04:25:42;4.27;;;3.50;;
1082;SDS011;530;51.448;7.238;2022-12-18T04:28:07;5.33;;;3.10;;
1082;SDS011;530;51.448;7.238;2022-12-18T04:30:33;4.70;;;3.67;;
1082;SDS011;530;51.448;7.238;2022-12-18T04:32:58;6.67;;;3.73;;
1082;SDS011;530;51.448;7.238;2022-12-18T04:35:24;5.30;;;3.93;;
1082;SDS011;530;51.448;7.238;2022-12-18T04:37:50;5.10;;;3.10;;
1082;SDS011;530;51.448;7.238;2022-12-18T04:40:15;4.17;;;3.23;;
1082;SDS011;530;51.448;7.238;2022-12-18T04:42:41;10.10;;;4.10;;
1082;SDS011;530;51.448;7.238;2022-12-18T04:45:07;6.40;;;3.50;;
1082;SDS011;530;51.448;7.238;2022-12-18T04:47:33;2.90;;;2.70;;
1082;SDS011;530;51.448;7.238;2022-12-18T04:49:59;4.90;;;3.20;;
1082;SDS011;530;51.448;7.238;2022-12-18T04:52:24;5.07;;;3.50;;
1082;SDS011;530;51.448;7.238;2022-12-18T04:54:50;5.60;;;3.30;;
1082;SDS011;530;51.448;7.238;2022-12-18T04:57:16;6.60;;;3.23;;
1082;SDS011;530;51.448;7.238;2022-12-18T04:59:43;3.67;;;2.90;;
1082;SDS011;530;51.448;7.238;2022-12-18T05:02:09;4.63;;;3.20;;
1082;SDS011;530;51.448;7.238;2022-12-18T05:04:34;3.43;;;2.63;;
1082;SDS011;530;51.448;7.238;2022-12-18T05:07:00;5.10;;;3.13;;
1082;SDS011;530;51.448;7.238;2022-12-18T05:09:26;3.90;;;2.70;;
1082;SDS011;530;51.448;7.238;2022-12-18T05:11:51;4.00;;;3.60;;
1082;SDS011;530;51.448;7.238;2022-12-18T05:14:17;4.63;;;3.37;;
1082;SDS011;530;51.448;7.238;2022-12-18T05:16:43;3.60;;;2.53;;
1082;SDS011;530;51.448;7.238;2022-12-18T05:19:08;4.23;;;3.13;;
1082;SDS011;530;51.448;7.238;2022-12-18T05:21:34;3.50;;;2.80;;
1082;SDS011;530;51.448;7.238;2022-12-18T05:24:00;3.43;;;2.90;;
1082;SDS011;530;51.448;7.238;2022-12-18T05:26:25;3.60;;;2.70;;
1082;SDS011;530;51.448;7.238;2022-12-18T05:28:51;4.70;;;3.23;;
1082;SDS011;530;51.448;7.238;2022-12-18T05:31:17;4.63;;;2.87;;
1082;SDS011;530;51.448;7.238;2022-12-18T05:33:42;4.37;;;2.90;;
1082;SDS011;530;51.448;7.238;2022-12-18T05:36:08;2.90;;;2.60;;
1082;SDS011;530;51.448;7.238;2022-12-18T05:38:35;4.60;;;3.50;;
1082;SDS011;530;51.448;7.238;2022-12-18T05:41:02;3.90;;;2.47;;
1082;SDS011;530;51.448;7.238;2022-12-18T05:43:29;4.53;;;2.70;;
1082;SDS011;530;51.448;7.238;2022-12-18T05:45:55;3.90;;;2.90;;
1082;SDS011;530;51.448;7.238;2022-12-18T05:48:22;3.70;;;2.70;;
1082;SDS011;530;51.448;7.238;2022-12-18T05:50:48;5.20;;;3.60;;
1082;SDS011;530;51.448;7.238;2022-12-18T05:53:16;4.90;;;3.10;;
1082;SDS011;530;51.448;7.238;2022-12-18T05:55:44;4.67;;;3.07;;
1082;SDS011;530;51.448;7.238;2022-12-18T05:58:11;4.43;;;3.07;;
1082;SDS011;530;51.448;7.238;2022-12-18T06:00:38;5.57;;;3.10;;
1082;SDS011;530;51.448;7.238;2022-12-18T06:03:05;5.43;;;3.33;;
1082;SDS011;530;51.448;7.238;2022-12-18T06:05:37;4.50;;;2.77;;
1082;SDS011;530;51.448;7.238;2022-12-18T06:08:03;5.17;;;3.00;;
1082;SDS011;530;51.448;7.238;2022-12-18T06:10:29;2.87;;;2.53;;
1082;SDS011;530;51.448;7.238;2022-12-18T06:12:55;4.83;;;3.03;;
1082;SDS011;530;51.448;7.238;2022-12-18T06:15:21;3.10;;;2.53;;
1082;SDS011;530;51.448;7.238;2022-12-18T06:17:46;4.77;;;3.47;;
1082;SDS011;530;51.448;7.238;2022-12-18T06:20:12;4.73;;;3.33;;
1082;SDS011;530;51.448;7.238;2022-12-18T06:22:37;4.10;;;2.70;;
1082;SDS011;530;51.448;7.238;2022-12-18T06:25:03;3.90;;;3.47;;
1082;SDS011;530;51.448;7.238;2022-12-18T06:27:29;4.33;;;2.80;;
1082;SDS011;530;51.448;7.238;2022-12-18T06:29:55;3.80;;;2.90;;
1082;SDS011;530;51.448;7.238;2022-12-18T06:32:20;8.60;;;3.67;;
1082;SDS011;530;51.448;7.238;2022-12-18T06:34:46;6.23;;;3.97;;
1082;SDS011;530;51.448;7.238;2022-12-18T06:37:12;5.17;;;3.80;;
1082;SDS011;530;51.448;7.238;2022-12-18T06:39:37;5.47;;;4.37;;
1082;SDS011;530;51.448;7.238;2022-12-18T06:42:03;4.57;;;3.63;;
1082;SDS011;530;51.448;7.238;2022-12-18T06:44:29;4.83;;;3.77;;
1082;SDS011;530;51.448;7.238;2022-12-18T06:46:54;6.53;;;4.23;;
1082;SDS011;530;51.448;7.238;2022-12-18T06:49:20;6.07;;;4.00;;
1082;SDS011;530;51.448;7.238;2022-12-18T06:51:46;5.40;;;3.57;;
1082;SDS011;530;51.448;7.238;2022-12-18T06:54:12;4.70;;;3.53;;
1082;SDS011;530;51.448;7.238;2022-12-18T06:56:37;4.50;;;3.80;;
1082;SDS011;530;51.448;7.238;2022-12-18T06:59:03;4.57;;;3.30;;
1082;SDS011;530;51.448;7.238;2022-12-18T07:01:29;5.00;;;3.73;;
1082;SDS011;530;51.448;7.238;2022-12-18T07:03:55;5.17;;;3.70;;
1082;SDS011;530;51.448;7.238;2022-12-18T07:06:22;6.40;;;3.77;;
1082;SDS011;530;51.448;7.238;2022-12-18T07:08:49;7.00;;;4.00;;
1082;SDS011;530;51.448;7.238;2022-12-18T07:11:15;5.90;;;3.60;;
1082;SDS011;530;51.448;7.238;2022-12-18T07:13:42;5.63;;;4.00;;
1082;SDS011;530;51.448;7.238;2022-12-18T07:16:09;4.60;;;3.40;;
1082;SDS011;530;51.448;7.238;2022-12-18T07:18:39;4.30;;;3.40;;
1082;SDS011;530;51.448;7.238;2022-12-18T07:21:09;5.77;;;4.03;;
1082;SDS011;530;51.448;7.238;2022-12-18T07:23:37;7.10;;;3.87;;
1082;SDS011;530;51.448;7.238;2022-12-18T07:26:04;6.30;;;3.80;;
1082;SDS011;530;51.448;7.238;2022-12-18T07:28:35;7.23;;;4.10;;
1082;SDS011;530;51.448;7.238;2022-12-18T07:31:02;4.43;;;3.63;;
1082;SDS011;530;51.448;7.238;2022-12-18T07:33:33;6.80;;;3.13;;
1082;SDS011;530;51.448;7.238;2022-12-18T07:36:02;7.70;;;3.97;;
1082;SDS011;530;51.448;7.238;2022-12-18T07:38:30;4.67;;;3.30;;
1082;SDS011;530;51.448;7.238;2022-12-18T07:41:03;4.10;;;3.13;;
1082;SDS011;530;51.448;7.238;2022-12-18T07:43:30;6.57;;;4.30;;
1082;SDS011;530;51.448;7.238;2022-12-18T07:45:56;7.53;;;4.07;;
1082;SDS011;530;51.448;7.238;2022-12-18T07:48:22;5.73;;;3.40;;
1082;SDS011;530;51.448;7.238;2022-12-18T07:50:47;7.13;;;3.90;;
1082;SDS011;530;51.448;7.238;2022-12-18T07:53:13;5.87;;;3.70;;
1082;SDS011;530;51.448;7.238;2022-12-18T07:55:39;4.67;;;3.47;;
1082;SDS011;530;51.448;7.238;2022-12-18T07:58:06;4.33;;;3.20;;
1082;SDS011;530;51.448;7.238;2022-12-18T08:00:33;4.37;;;2.93;;
1082;SDS011;530;51.448;7.238;2022-12-18T08:02:59;5.47;;;2.97;;
1082;SDS011;530;51.448;7.238;2022-12-18T08:05:25;6.37;;;3.20;;
1082;SDS011;530;51.448;7.238;2022-12-18T08:07:51;5.33;;;3.23;;
1082;SDS011;530;51.448;7.238;2022-12-18T08:10:16;5.00;;;3.70;;
1082;SDS011;530;51.448;7.238;2022-12-18T08:12:42;5.83;;;3.20;;
1082;SDS011;530;51.448;7.238;2022-12-18T08:15:08;4.37;;;3.07;;
1082;SDS011;530;51.448;7.238;2022-12-18T08:17:34;4.67;;;3.73;;
1082;SDS011;530;51.448;7.238;2022-12-18T08:19:59;5.27;;;3.50;;
1082;SDS011;530;51.448;7.238;2022-12-18T08:22:25;5.80;;;3.10;;
1082;SDS011;530;51.448;7.238;2022-12-18T08:24:51;5.33;;;3.17;;
1082;SDS011;530;51.448;7.238;2022-12-18T08:27:16;4.20;;;2.80;;
1082;SDS011;530;51.448;7.238;2022-12-18T08:29:42;4.17;;;2.70;;
1082;SDS011;530;51.448;7.238;2022-12-18T08:32:08;4.10;;;2.73;;
1082;SDS011;530;51.448;7.238;2022-12-18T08:34:33;3.17;;;2.60;;
1082;SDS011;530;51.448;7.238;2022-12-18T08:36:59;4.20;;;3.00;;
1082;SDS011;530;51.448;7.238;2022-12-18T08:39:25;3.50;;;2.63;;
1082;SDS011;530;51.448;7.238;2022-12-18T08:41:51;3.53;;;2.77;;
1082;SDS011;530;51.448;7.238;2022-12-18T08:44:40;3.93;;;3.00;;
1082;SDS011;530;51.448;7.238;2022-12-18T08:47:06;4.70;;;3.00;;
1082;SDS011;530;51.448;7.238;2022-12-18T08:49:33;3.87;;;2.90;;
1082;SDS011;530;51.448;7.238;2022-12-18T08:51:59;5.00;;;2.67;;
1082;SDS011;530;51.448;7.238;2022-12-18T08:54:25;3.93;;;2.87;;
1082;SDS011;530;51.448;7.238;2022-12-18T08:56:51;4.63;;;3.33;;
1082;SDS011;530;51.448;7.238;2022-12-18T08:59:17;3.93;;;2.83;;
1082;SDS011;530;51.448;7.238;2022-12-18T09:01:44;3.57;;;3.20;;
1082;SDS011;530;51.448;7.238;2022-12-18T09:04:10;4.40;;;3.40;;
1082;SDS011;530;51.448;7.238;2022-12-18T09:06:36;3.53;;;3.10;;
1082;SDS011;530;51.448;7.238;2022-12-18T09:09:03;4.37;;;3.20;;
1082;SDS011;530;51.448;7.238;2022-12-18T09:11:29;4.40;;;3.17;;
1082;SDS011;530;51.448;7.238;2022-12-18T09:13:56;3.67;;;2.90;;
1082;SDS011;530;51.448;7.238;2022-12-18T09:16:24;3.93;;;2.87;;
1082;SDS011;530;51.448;7.238;2022-12-18T09:18:51;4.20;;;2.70;;
1082;SDS011;530;51.448;7.238;2022-12-18T09:21:19;5.47;;;2.63;;
1082;SDS011;530;51.448;7.238;2022-12-18T09:23:49;4.43;;;3.17;;
1082;SDS011;530;51.448;7.238;2022-12-18T09:26:15;3.97;;;2.80;;
1082;SDS011;530;51.448;7.238;2022-12-18T09:28:41;3.20;;;2.60;;
1082;SDS011;530;51.448;7.238;2022-12-18T09:31:08;4.50;;;3.13;;
1082;SDS011;530;51.448;7.238;2022-12-18T09:33:37;3.30;;;2.70;;
1082;SDS011;530;51.448;7.238;2022-12-18T09:36:05;3.27;;;2.97;;
1082;SDS011;530;51.448;7.238;2022-12-18T09:38:33;3.90;;;3.10;;
1082;SDS011;530;51.448;7.238;2022-12-18T09:41:06;4.67;;;2.80;;
1082;SDS011;530;51.448;7.238;2022-12-18T09:44:01;2.80;;;2.30;;
1082;SDS011;530;51.448;7.238;2022-12-18T09:46:37;4.10;;;2.50;;
1082;SDS011;530;51.448;7.238;2022-12-18T09:49:14;2.87;;;2.37;;
1082;SDS011;530;51.448;7.238;2022-12-18T09:51:44;4.40;;;2.33;;
1082;SDS011;530;51.448;7.238;2022-12-18T09:54:21;3.90;;;2.33;;
1082;SDS011;530;51.448;7.238;2022-12-18T09:56:51;3.93;;;2.33;;
1082;SDS011;530;51.448;7.238;2022-12-18T09:59:29;3.33;;;2.57;;
1082;SDS011;530;51.448;7.238;2022-12-18T10:01:59;3.90;;;2.63;;
1082;SDS011;530;51.448;7.238;2022-12-18T10:04:24;4.17;;;2.70;;
1082;SDS011;530;51.448;7.238;2022-12-18T10:07:03;3.10;;;2.40;;
1082;SDS011;530;51.448;7.238;2022-12-18T10:09:38;3.80;;;2.90;;
1082;SDS011;530;51.448;7.238;2022-12-18T10:25:45;4.60;;;2.70;;
1082;SDS011;530;51.448;7.238;2022-12-18T10:28:14;3.53;;;2.50;;
1082;SDS011;530;51.448;7.238;2022-12-18T10:30:42;3.40;;;2.60;;
1082;SDS011;530;51.448;7.238;2022-12-18T10:33:12;5.23;;;2.43;;
1082;SDS011;530;51.448;7.238;2022-12-18T10:35:44;3.10;;;2.63;;
1082;SDS011;530;51.448;7.238;2022-12-18T10:43:30;4.80;;;2.77;;
1082;SDS011;530;51.448;7.238;2022-12-18T10:46:05;4.40;;;2.63;;
1082;SDS011;530;51.448;7.238;2022-12-18T10:48:48;3.87;;;2.60;;
1082;SDS011;530;51.448;7.238;2022-12-18T10:51:25;4.07;;;2.47;;
1082;SDS011;530;51.448;7.238;2022-12-18T10:56:41;4.07;;;2.50;;
1082;SDS011;530;51.448;7.238;2022-12-18T10:59:08;3.20;;;2.90;;
1082;SDS011;530;51.448;7.238;2022-12-18T11:01:46;6.07;;;3.23;;
1082;SDS011;530;51.448;7.238;2022-12-18T11:04:21;4.37;;;2.77;;
1082;SDS011;530;51.448;7.238;2022-12-18T11:06:52;3.80;;;2.90;;
1082;SDS011;530;51.448;7.238;2022-12-18T11:09:22;4.60;;;2.90;;
1082;SDS011;530;51.448;7.238;2022-12-18T11:11:50;2.50;;;2.30;;
1082;SDS011;530;51.448;7.238;2022-12-18T11:14:27;6.20;;;3.40;;
1082;SDS011;530;51.448;7.238;2022-12-18T11:16:58;5.23;;;3.23;;
1082;SDS011;530;51.448;7.238;2022-12-18T11:19:30;3.80;;;2.77;;
1082;SDS011;530;51.448;7.238;2022-12-18T11:21:59;3.90;;;2.87;;
1082;SDS011;530;51.448;7.238;2022-12-18T11:24:30;3.90;;;3.07;;
1082;SDS011;530;51.448;7.238;2022-12-18T11:26:59;4.63;;;3.30;;
1082;SDS011;530;51.448;7.238;2022-12-18T11:35:03;4.13;;;3.07;;
1082;SDS011;530;51.448;7.238;2022-12-18T11:37:40;3.50;;;2.60;;
1082;SDS011;530;51.448;7.238;2022-12-18T11:40:14;4.53;;;3.03;;
1082;SDS011;530;51.448;7.238;2022-12-18T11:42:52;4.40;;;3.13;;
1082;SDS011;530;51.448;7.238;2022-12-18T11:45:30;4.97;;;3.50;;
1082;SDS011;530;51.448;7.238;2022-12-18T11:48:14;3.73;;;2.70;;
1082;SDS011;530;51.448;7.238;2022-12-18T11:50:52;5.17;;;2.93;;
1082;SDS011;530;51.448;7.238;2022-12-18T11:53:19;5.50;;;3.23;;
1082;SDS011;530;51.448;7.238;2022-12-18T11:55:49;5.03;;;2.80;;
1082;SDS011;530;51.448;7.238;2022-12-18T12:01:18;4.37;;;3.00;;
1082;SDS011;530;51.448;7.238;2022-12-18T12:04:21;3.63;;;3.23;;
1082;SDS011;530;51.448;7.238;2022-12-18T12:06:59;4.67;;;3.43;;
1082;SDS011;530;51.448;7.238;2022-12-18T12:09:51;5.23;;;3.27;;
1082;SDS011;530;51.448;7.238;2022-12-18T12:15:24;3.27;;;2.40;;
1082;SDS011;530;51.448;7.238;2022-12-18T12:20:49;4.40;;;3.20;;
1082;SDS011;530;51.448;7.238;2022-12-18T12:23:46;5.60;;;3.50;;
1082;SDS011;530;51.448;7.238;2022-12-18T12:26:35;4.07;;;3.27;;
1082;SDS011;530;51.448;7.238;2022-12-18T12:32:41;4.57;;;3.60;;
1082;SDS011;530;51.448;7.238;2022-12-18T12:40:59;5.97;;;4.33;;
1082;SDS011;530;51.448;7.238;2022-12-18T12:43:37;6.67;;;3.70;;
1082;SDS011;530;51.448;7.238;2022-12-18T12:46:09;5.23;;;3.80;;
1082;SDS011;530;51.448;7.238;2022-12-18T12:51:29;5.90;;;3.73;;
1082;SDS011;530;51.448;7.238;2022-12-18T12:53:59;5.20;;;3.77;;
1082;SDS011;530;51.448;7.238;2022-12-18T12:56:34;5.70;;;4.43;;
1082;SDS011;530;51.448;7.238;2022-12-18T13:02:17;4.13;;;3.70;;
1082;SDS011;530;51.448;7.238;2022-12-18T13:08:08;5.97;;;4.10;;
1082;SDS011;530;51.448;7.238;2022-12-18T13:10:41;6.70;;;4.43;;
1082;SDS011;530;51.448;7.238;2022-12-18T13:13:11;7.50;;;4.00;;
1082;SDS011;530;51.448;7.238;2022-12-18T13:18:29;7.83;;;5.50;;
1082;SDS011;530;51.448;7.238;2022-12-18T13:25:51;6.90;;;4.83;;
1082;SDS011;530;51.448;7.238;2022-12-18T13:31:11;10.03;;;5.67;;
1082;SDS011;530;51.448;7.238;2022-12-18T13:36:46;9.30;;;6.10;;
1082;SDS011;530;51.448;7.238;2022-12-18T13:41:46;12.93;;;6.23;;
1082;SDS011;530;51.448;7.238;2022-12-18T13:46:58;8.90;;;6.40;;
1082;SDS011;530;51.448;7.238;2022-12-18T13:52:22;8.50;;;6.23;;
1082;SDS011;530;51.448;7.238;2022-12-18T13:54:54;8.73;;;5.73;;
1082;SDS011;530;51.448;7.238;2022-12-18T13:57:35;10.77;;;6.70;;
1082;SDS011;530;51.448;7.238;2022-12-18T14:00:40;10.10;;;7.10;;
1082;SDS011;530;51.448;7.238;2022-12-18T14:02:58;10.57;;;7.07;;
1082;SDS011;530;51.448;7.238;2022-12-18T14:05:34;10.10;;;6.77;;
1082;SDS011;530;51.448;7.238;2022-12-18T14:08:05;11.20;;;7.23;;
1082;SDS011;530;51.448;7.238;2022-12-18T14:10:39;11.67;;;6.90;;
1082;SDS011;530;51.448;7.238;2022-12-18T14:13:09;11.77;;;7.50;;
1082;SDS011;530;51.448;7.238;2022-12-18T14:15:40;9.77;;;6.77;;
1082;SDS011;530;51.448;7.238;2022-12-18T14:21:28;10.27;;;6.93;;
1082;SDS011;530;51.448;7.238;2022-12-18T14:24:03;8.63;;;7.10;;
1082;SDS011;530;51.448;7.238;2022-12-18T14:26:47;11.90;;;7.73;;
1082;SDS011;530;51.448;7.238;2022-12-18T14:29:21;10.03;;;7.30;;
1082;SDS011;530;51.448;7.238;2022-12-18T14:32:06;9.27;;;6.97;;
1082;SDS011;530;51.448;7.238;2022-12-18T14:34:51;9.57;;;7.10;;
1082;SDS011;530;51.448;7.238;2022-12-18T14:37:25;10.63;;;7.70;;
1082;SDS011;530;51.448;7.238;2022-12-18T14:42:26;12.50;;;8.67;;
1082;SDS011;530;51.448;7.238;2022-12-18T14:47:56;14.50;;;8.70;;
1082;SDS011;530;51.448;7.238;2022-12-18T14:50:22;10.80;;;8.03;;
1082;SDS011;530;51.448;7.238;2022-12-18T14:52:48;13.77;;;8.43;;
1082;SDS011;530;51.448;7.238;2022-12-18T14:55:15;13.07;;;8.50;;
1082;SDS011;530;51.448;7.238;2022-12-18T14:57:42;10.73;;;8.53;;
1082;SDS011;530;51.448;7.238;2022-12-18T15:00:16;15.57;;;8.70;;
1082;SDS011;530;51.448;7.238;2022-12-18T15:02:45;13.87;;;8.70;;
1082;SDS011;530;51.448;7.238;2022-12-18T15:05:21;14.97;;;9.47;;
1082;SDS011;530;51.448;7.238;2022-12-18T15:07:54;14.50;;;9.70;;
1082;SDS011;530;51.448;7.238;2022-12-18T15:10:22;13.40;;;8.70;;
1082;SDS011;530;51.448;7.238;2022-12-18T15:18:10;16.30;;;10.10;;
1082;SDS011;530;51.448;7.238;2022-12-18T15:23:15;12.30;;;9.97;;
1082;SDS011;530;51.448;7.238;2022-12-18T15:28:32;15.10;;;10.03;;
1082;SDS011;530;51.448;7.238;2022-12-18T15:33:34;15.47;;;11.17;;
1082;SDS011;530;51.448;7.238;2022-12-18T15:36:05;11.10;;;8.23;;
1082;SDS011;530;51.448;7.238;2022-12-18T15:38:34;14.27;;;10.10;;
1082;SDS011;530;51.448;7.238;2022-12-18T15:41:00;14.30;;;10.00;;
1082;SDS011;530;51.448;7.238;2022-12-18T15:43:26;14.23;;;10.03;;
1082;SDS011;530;51.448;7.238;2022-12-18T15:46:06;14.17;;;9.30;;
1082;SDS011;530;51.448;7.238;2022-12-18T15:48:39;14.10;;;10.27;;
1082;SDS011;530;51.448;7.238;2022-12-18T15:51:49;16.00;;;11.00;;
1082;SDS011;530;51.448;7.238;2022-12-18T15:54:04;13.33;;;9.90;;
1082;SDS011;530;51.448;7.238;2022-12-18T15:56:33;14.00;;;10.00;;
1082;SDS011;530;51.448;7.238;2022-12-18T15:59:18;16.13;;;10.57;;
1082;SDS011;530;51.448;7.238;2022-12-18T16:01:49;15.70;;;11.10;;
1082;SDS011;530;51.448;7.238;2022-12-18T16:04:18;15.80;;;11.50;;
1082;SDS011;530;51.448;7.238;2022-12-18T16:06:45;15.07;;;10.97;;
1082;SDS011;530;51.448;7.238;2022-12-18T16:09:12;15.00;;;10.90;;
1082;SDS011;530;51.448;7.238;2022-12-18T16:11:38;14.70;;;10.43;;
1082;SDS011;530;51.448;7.238;2022-12-18T16:14:20;15.50;;;11.20;;
1082;SDS011;530;51.448;7.238;2022-12-18T16:16:52;15.70;;;10.70;;
1082;SDS011;530;51.448;7.238;2022-12-18T16:19:24;18.40;;;11.77;;
1082;SDS011;530;51.448;7.238;2022-12-18T16:21:51;17.63;;;11.77;;
1082;SDS011;530;51.448;7.238;2022-12-18T16:24:26;16.40;;;12.30;;
1082;SDS011;530;51.448;7.238;2022-12-18T16:26:54;17.60;;;11.80;;
1082;SDS011;530;51.448;7.238;2022-12-18T16:29:20;17.97;;;11.30;;
1082;SDS011;530;51.448;7.238;2022-12-18T16:31:50;16.07;;;10.60;;
1082;SDS011;530;51.448;7.238;2022-12-18T16:34:23;19.60;;;12.30;;
1082;SDS011;530;51.448;7.238;2022-12-18T16:36:53;18.40;;;12.73;;
1082;SDS011;530;51.448;7.238;2022-12-18T16:39:23;14.53;;;10.97;;
1082;SDS011;530;51.448;7.238;2022-12-18T16:41:49;16.90;;;11.57;;
1082;SDS011;530;51.448;7.238;2022-12-18T16:44:15;18.13;;;13.17;;
1082;SDS011;530;51.448;7.238;2022-12-18T16:46:41;17.90;;;11.93;;
1082;SDS011;530;51.448;7.238;2022-12-18T16:49:10;17.20;;;12.73;;
1082;SDS011;530;51.448;7.238;2022-12-18T16:51:39;15.90;;;12.70;;
1082;SDS011;530;51.448;7.238;2022-12-18T16:54:05;18.93;;;13.20;;
1082;SDS011;530;51.448;7.238;2022-12-18T16:56:31;21.40;;;12.03;;
1082;SDS011;530;51.448;7.238;2022-12-18T16:58:58;16.93;;;11.80;;
1082;SDS011;530;51.448;7.238;2022-12-18T17:01:25;17.40;;;12.27;;
1082;SDS011;530;51.448;7.238;2022-12-18T17:04:01;20.70;;;14.87;;
1082;SDS011;530;51.448;7.238;2022-12-18T17:06:32;21.10;;;15.57;;
1082;SDS011;530;51.448;7.238;2022-12-18T17:09:04;20.00;;;14.60;;
1082;SDS011;530;51.448;7.238;2022-12-18T17:11:33;17.83;;;12.80;;
1082;SDS011;530;51.448;7.238;2022-12-18T17:14:04;23.93;;;13.70;;
1082;SDS011;530;51.448;7.238;2022-12-18T17:16:31;20.60;;;13.37;;
1082;SDS011;530;51.448;7.238;2022-12-18T17:18:57;25.47;;;14.33;;
1082;SDS011;530;51.448;7.238;2022-12-18T17:21:22;19.27;;;13.97;;
1082;SDS011;530;51.448;7.238;2022-12-18T17:23:48;22.70;;;14.37;;
1082;SDS011;530;51.448;7.238;2022-12-18T17:26:14;18.87;;;13.80;;
1082;SDS011;530;51.448;7.238;2022-12-18T17:28:40;20.43;;;15.03;;
1082;SDS011;530;51.448;7.238;2022-12-18T17:31:21;26.60;;;17.43;;
1082;SDS011;530;51.448;7.238;2022-12-18T17:33:48;23.83;;;15.27;;
1082;SDS011;530;51.448;7.238;2022-12-18T17:36:15;28.47;;;18.60;;
1082;SDS011;530;51.448;7.238;2022-12-18T17:38:41;23.30;;;15.83;;
1082;SDS011;530;51.448;7.238;2022-12-18T17:41:08;21.50;;;15.10;;
1082;SDS011;530;51.448;7.238;2022-12-18T17:43:35;29.30;;;19.93;;